sensor_id;sensor_type;location;lat;lon;timestamp;P1;durP1;ratioP1;P2;durP2;ratioP2
60726;SDS011;46577;49.004;12.120;2022-12-18T00:01:37;73.37;;;22.53;;
60726;SDS011;46577;49.004;12.120;2022-12-18T00:04:03;67.87;;;21.40;;
60726;SDS011;46577;49.004;12.120;2022-12-18T00:06:31;76.40;;;23.17;;
60726;SDS011;46577;49.004;12.120;2022-12-18T00:08:57;67.77;;;21.20;;
60726;SDS011;46577;49.004;12.120;2022-12-18T00:11:25;70.47;;;21.63;;
60726;SDS011;46577;49.004;12.120;2022-12-18T00:13:53;58.92;;;20.13;;
60726;SDS011;46577;49.004;12.120;2022-12-18T00:16:21;47.93;;;18.67;;
60726;SDS011;46577;49.004;12.120;2022-12-18T00:18:48;74.70;;;23.37;;
60726;SDS011;46577;49.004;12.120;2022-12-18T00:21:15;63.27;;;20.30;;
60726;SDS011;46577;49.004;12.120;2022-12-18T00:23:42;64.30;;;20.47;;
60726;SDS011;46577;49.004;12.120;2022-12-18T00:26:12;59.00;;;20.87;;
60726;SDS011;46577;49.004;12.120;2022-12-18T00:28:43;51.67;;;18.80;;
60726;SDS011;46577;49.004;12.120;2022-12-18T00:31:10;60.80;;;19.70;;
60726;SDS011;46577;49.004;12.120;2022-12-18T00:33:38;65.37;;;22.77;;
60726;SDS011;46577;49.004;12.120;2022-12-18T00:36:05;60.30;;;20.47;;
60726;SDS011;46577;49.004;12.120;2022-12-18T00:38:35;63.50;;;20.20;;
60726;SDS011;46577;49.004;12.120;2022-12-18T00:41:01;57.37;;;19.90;;
60726;SDS011;46577;49.004;12.120;2022-12-18T00:43:27;57.80;;;19.40;;
60726;SDS011;46577;49.004;12.120;2022-12-18T00:45:53;62.20;;;22.13;;
60726;SDS011;46577;49.004;12.120;2022-12-18T00:48:19;58.63;;;19.80;;
60726;SDS011;46577;49.004;12.120;2022-12-18T00:50:44;58.90;;;20.77;;
60726;SDS011;46577;49.004;12.120;2022-12-18T00:53:10;66.07;;;20.97;;
60726;SDS011;46577;49.004;12.120;2022-12-18T00:55:37;61.47;;;18.37;;
60726;SDS011;46577;49.004;12.120;2022-12-18T00:58:07;61.13;;;19.97;;
60726;SDS011;46577;49.004;12.120;2022-12-18T01:00:33;56.23;;;20.07;;
60726;SDS011;46577;49.004;12.120;2022-12-18T01:02:59;55.33;;;19.73;;
60726;SDS011;46577;49.004;12.120;2022-12-18T01:05:25;48.30;;;18.50;;
60726;SDS011;46577;49.004;12.120;2022-12-18T01:07:51;50.07;;;16.97;;
60726;SDS011;46577;49.004;12.120;2022-12-18T01:10:17;53.73;;;17.90;;
60726;SDS011;46577;49.004;12.120;2022-12-18T01:12:43;66.50;;;19.50;;
60726;SDS011;46577;49.004;12.120;2022-12-18T01:15:09;57.87;;;21.33;;
60726;SDS011;46577;49.004;12.120;2022-12-18T01:17:36;53.03;;;18.13;;
60726;SDS011;46577;49.004;12.120;2022-12-18T01:20:02;52.93;;;17.47;;
60726;SDS011;46577;49.004;12.120;2022-12-18T01:22:28;58.87;;;20.03;;
60726;SDS011;46577;49.004;12.120;2022-12-18T01:24:53;63.10;;;20.43;;
60726;SDS011;46577;49.004;12.120;2022-12-18T01:27:19;53.00;;;16.97;;
60726;SDS011;46577;49.004;12.120;2022-12-18T01:29:45;57.37;;;18.70;;
60726;SDS011;46577;49.004;12.120;2022-12-18T01:32:10;60.70;;;20.03;;
60726;SDS011;46577;49.004;12.120;2022-12-18T01:34:36;54.77;;;19.30;;
60726;SDS011;46577;49.004;12.120;2022-12-18T01:37:03;54.73;;;19.23;;
60726;SDS011;46577;49.004;12.120;2022-12-18T01:39:29;59.80;;;19.97;;
60726;SDS011;46577;49.004;12.120;2022-12-18T01:41:56;63.53;;;20.77;;
60726;SDS011;46577;49.004;12.120;2022-12-18T01:49:54;51.53;;;19.87;;
60726;SDS011;46577;49.004;12.120;2022-12-18T01:52:20;57.07;;;20.17;;
60726;SDS011;46577;49.004;12.120;2022-12-18T01:54:47;56.30;;;20.47;;
60726;SDS011;46577;49.004;12.120;2022-12-18T01:57:16;49.27;;;19.83;;
60726;SDS011;46577;49.004;12.120;2022-12-18T01:59:42;69.33;;;20.80;;
60726;SDS011;46577;49.004;12.120;2022-12-18T02:02:14;63.27;;;22.20;;
60726;SDS011;46577;49.004;12.120;2022-12-18T02:04:41;59.90;;;19.37;;
60726;SDS011;46577;49.004;12.120;2022-12-18T02:07:09;60.00;;;21.30;;
60726;SDS011;46577;49.004;12.120;2022-12-18T02:12:42;71.17;;;23.03;;
60726;SDS011;46577;49.004;12.120;2022-12-18T02:15:26;67.93;;;22.47;;
60726;SDS011;46577;49.004;12.120;2022-12-18T02:18:02;63.10;;;21.27;;
60726;SDS011;46577;49.004;12.120;2022-12-18T02:20:48;61.73;;;21.70;;
60726;SDS011;46577;49.004;12.120;2022-12-18T02:26:15;57.83;;;17.93;;
60726;SDS011;46577;49.004;12.120;2022-12-18T02:29:00;48.17;;;16.73;;
60726;SDS011;46577;49.004;12.120;2022-12-18T02:31:36;51.93;;;17.20;;
60726;SDS011;46577;49.004;12.120;2022-12-18T02:34:24;49.00;;;17.83;;
60726;SDS011;46577;49.004;12.120;2022-12-18T02:36:54;51.63;;;17.97;;
60726;SDS011;46577;49.004;12.120;2022-12-18T02:39:21;44.17;;;19.00;;
60726;SDS011;46577;49.004;12.120;2022-12-18T02:41:50;41.97;;;16.80;;
60726;SDS011;46577;49.004;12.120;2022-12-18T02:44:16;49.57;;;16.73;;
60726;SDS011;46577;49.004;12.120;2022-12-18T02:46:45;44.10;;;14.70;;
60726;SDS011;46577;49.004;12.120;2022-12-18T02:49:21;39.50;;;15.00;;
60726;SDS011;46577;49.004;12.120;2022-12-18T02:59:51;39.73;;;13.83;;
60726;SDS011;46577;49.004;12.120;2022-12-18T03:02:28;42.10;;;13.80;;
60726;SDS011;46577;49.004;12.120;2022-12-18T03:05:15;40.40;;;14.87;;
60726;SDS011;46577;49.004;12.120;2022-12-18T03:07:53;48.97;;;17.90;;
60726;SDS011;46577;49.004;12.120;2022-12-18T03:10:25;44.60;;;15.43;;
60726;SDS011;46577;49.004;12.120;2022-12-18T03:13:00;47.57;;;16.47;;
60726;SDS011;46577;49.004;12.120;2022-12-18T03:15:30;42.23;;;15.20;;
60726;SDS011;46577;49.004;12.120;2022-12-18T03:18:04;37.60;;;16.45;;
60726;SDS011;46577;49.004;12.120;2022-12-18T03:20:42;48.83;;;17.27;;
60726;SDS011;46577;49.004;12.120;2022-12-18T03:23:12;38.53;;;15.60;;
60726;SDS011;46577;49.004;12.120;2022-12-18T03:25:46;38.90;;;15.70;;
60726;SDS011;46577;49.004;12.120;2022-12-18T03:28:16;40.30;;;14.77;;
60726;SDS011;46577;49.004;12.120;2022-12-18T03:30:46;37.37;;;15.50;;
60726;SDS011;46577;49.004;12.120;2022-12-18T03:33:17;38.53;;;14.33;;
60726;SDS011;46577;49.004;12.120;2022-12-18T03:35:48;42.73;;;16.53;;
60726;SDS011;46577;49.004;12.120;2022-12-18T03:38:15;37.90;;;15.53;;
60726;SDS011;46577;49.004;12.120;2022-12-18T03:40:43;40.73;;;15.00;;
60726;SDS011;46577;49.004;12.120;2022-12-18T03:43:28;40.67;;;15.73;;
60726;SDS011;46577;49.004;12.120;2022-12-18T03:46:02;41.00;;;15.17;;
60726;SDS011;46577;49.004;12.120;2022-12-18T03:48:41;53.47;;;17.27;;
60726;SDS011;46577;49.004;12.120;2022-12-18T03:51:17;39.63;;;15.80;;
60726;SDS011;46577;49.004;12.120;2022-12-18T03:54:05;34.17;;;16.10;;
60726;SDS011;46577;49.004;12.120;2022-12-18T03:56:35;38.43;;;14.53;;
60726;SDS011;46577;49.004;12.120;2022-12-18T03:59:05;43.07;;;15.67;;
60726;SDS011;46577;49.004;12.120;2022-12-18T04:01:33;48.30;;;14.87;;
60726;SDS011;46577;49.004;12.120;2022-12-18T04:04:02;37.23;;;14.97;;
60726;SDS011;46577;49.004;12.120;2022-12-18T04:06:29;38.53;;;15.00;;
60726;SDS011;46577;49.004;12.120;2022-12-18T04:08:57;38.30;;;15.70;;
60726;SDS011;46577;49.004;12.120;2022-12-18T04:11:24;44.87;;;15.87;;
60726;SDS011;46577;49.004;12.120;2022-12-18T04:13:50;41.00;;;15.20;;
60726;SDS011;46577;49.004;12.120;2022-12-18T04:16:20;38.60;;;14.43;;
60726;SDS011;46577;49.004;12.120;2022-12-18T04:18:45;35.03;;;14.00;;
60726;SDS011;46577;49.004;12.120;2022-12-18T04:21:11;40.47;;;16.20;;
60726;SDS011;46577;49.004;12.120;2022-12-18T04:23:36;43.60;;;15.87;;
60726;SDS011;46577;49.004;12.120;2022-12-18T04:26:02;53.00;;;14.73;;
60726;SDS011;46577;49.004;12.120;2022-12-18T04:28:27;36.30;;;14.47;;
60726;SDS011;46577;49.004;12.120;2022-12-18T04:30:53;41.93;;;14.13;;
60726;SDS011;46577;49.004;12.120;2022-12-18T04:33:18;43.57;;;13.67;;
60726;SDS011;46577;49.004;12.120;2022-12-18T04:35:45;34.73;;;13.23;;
60726;SDS011;46577;49.004;12.120;2022-12-18T04:38:10;39.07;;;15.63;;
60726;SDS011;46577;49.004;12.120;2022-12-18T04:40:36;35.00;;;14.13;;
60726;SDS011;46577;49.004;12.120;2022-12-18T04:43:03;40.70;;;14.63;;
60726;SDS011;46577;49.004;12.120;2022-12-18T04:45:32;35.17;;;14.07;;
60726;SDS011;46577;49.004;12.120;2022-12-18T04:47:58;30.60;;;12.40;;
60726;SDS011;46577;49.004;12.120;2022-12-18T04:50:24;40.63;;;14.10;;
60726;SDS011;46577;49.004;12.120;2022-12-18T04:52:50;43.87;;;15.00;;
60726;SDS011;46577;49.004;12.120;2022-12-18T04:55:15;36.13;;;13.60;;
60726;SDS011;46577;49.004;12.120;2022-12-18T04:57:41;34.17;;;12.27;;
60726;SDS011;46577;49.004;12.120;2022-12-18T05:00:07;36.50;;;13.63;;
60726;SDS011;46577;49.004;12.120;2022-12-18T05:02:33;30.90;;;12.80;;
60726;SDS011;46577;49.004;12.120;2022-12-18T05:04:58;30.63;;;12.80;;
60726;SDS011;46577;49.004;12.120;2022-12-18T05:07:24;38.47;;;13.60;;
60726;SDS011;46577;49.004;12.120;2022-12-18T05:09:50;37.67;;;14.23;;
60726;SDS011;46577;49.004;12.120;2022-12-18T05:12:15;40.67;;;15.13;;
60726;SDS011;46577;49.004;12.120;2022-12-18T05:14:41;34.40;;;13.63;;
60726;SDS011;46577;49.004;12.120;2022-12-18T05:17:06;32.20;;;12.60;;
60726;SDS011;46577;49.004;12.120;2022-12-18T05:19:32;33.67;;;12.43;;
60726;SDS011;46577;49.004;12.120;2022-12-18T05:21:58;36.17;;;13.27;;
60726;SDS011;46577;49.004;12.120;2022-12-18T05:24:23;32.83;;;14.43;;
60726;SDS011;46577;49.004;12.120;2022-12-18T05:26:49;38.27;;;13.60;;
60726;SDS011;46577;49.004;12.120;2022-12-18T05:29:14;38.77;;;13.97;;
60726;SDS011;46577;49.004;12.120;2022-12-18T05:31:40;40.13;;;13.67;;
60726;SDS011;46577;49.004;12.120;2022-12-18T05:34:06;35.80;;;12.90;;
60726;SDS011;46577;49.004;12.120;2022-12-18T05:36:32;32.80;;;13.13;;
60726;SDS011;46577;49.004;12.120;2022-12-18T05:38:57;38.60;;;14.33;;
60726;SDS011;46577;49.004;12.120;2022-12-18T05:41:23;37.73;;;13.93;;
60726;SDS011;46577;49.004;12.120;2022-12-18T05:43:48;36.53;;;13.23;;
60726;SDS011;46577;49.004;12.120;2022-12-18T05:46:15;44.97;;;13.30;;
60726;SDS011;46577;49.004;12.120;2022-12-18T05:48:42;45.60;;;13.77;;
60726;SDS011;46577;49.004;12.120;2022-12-18T05:51:12;44.38;;;13.90;;
60726;SDS011;46577;49.004;12.120;2022-12-18T05:53:40;43.40;;;16.77;;
60726;SDS011;46577;49.004;12.120;2022-12-18T05:56:08;38.83;;;14.40;;
60726;SDS011;46577;49.004;12.120;2022-12-18T05:58:35;43.43;;;15.03;;
60726;SDS011;46577;49.004;12.120;2022-12-18T06:03:36;41.13;;;13.93;;
60726;SDS011;46577;49.004;12.120;2022-12-18T06:06:02;43.63;;;14.03;;
60726;SDS011;46577;49.004;12.120;2022-12-18T06:08:28;44.27;;;15.93;;
60726;SDS011;46577;49.004;12.120;2022-12-18T06:10:53;46.57;;;13.37;;
60726;SDS011;46577;49.004;12.120;2022-12-18T06:13:19;42.43;;;15.47;;
60726;SDS011;46577;49.004;12.120;2022-12-18T06:15:45;37.67;;;13.38;;
60726;SDS011;46577;49.004;12.120;2022-12-18T06:18:11;45.73;;;16.73;;
60726;SDS011;46577;49.004;12.120;2022-12-18T06:20:37;43.47;;;13.60;;
60726;SDS011;46577;49.004;12.120;2022-12-18T06:23:04;44.23;;;14.50;;
60726;SDS011;46577;49.004;12.120;2022-12-18T06:25:31;41.03;;;15.02;;
60726;SDS011;46577;49.004;12.120;2022-12-18T06:27:57;43.90;;;14.07;;
60726;SDS011;46577;49.004;12.120;2022-12-18T06:30:22;51.07;;;14.27;;
60726;SDS011;46577;49.004;12.120;2022-12-18T06:32:48;51.27;;;16.83;;
60726;SDS011;46577;49.004;12.120;2022-12-18T06:35:14;49.47;;;14.20;;
60726;SDS011;46577;49.004;12.120;2022-12-18T06:37:40;52.30;;;15.70;;
60726;SDS011;46577;49.004;12.120;2022-12-18T06:40:06;49.90;;;15.27;;
60726;SDS011;46577;49.004;12.120;2022-12-18T06:42:32;38.93;;;14.80;;
60726;SDS011;46577;49.004;12.120;2022-12-18T06:44:58;53.33;;;16.30;;
60726;SDS011;46577;49.004;12.120;2022-12-18T06:47:24;51.97;;;14.67;;
60726;SDS011;46577;49.004;12.120;2022-12-18T06:49:49;49.83;;;16.13;;
60726;SDS011;46577;49.004;12.120;2022-12-18T06:52:15;39.13;;;14.40;;
60726;SDS011;46577;49.004;12.120;2022-12-18T06:54:40;51.03;;;15.60;;
60726;SDS011;46577;49.004;12.120;2022-12-18T06:57:06;47.30;;;15.77;;
60726;SDS011;46577;49.004;12.120;2022-12-18T06:59:32;55.70;;;16.53;;
60726;SDS011;46577;49.004;12.120;2022-12-18T07:01:58;51.20;;;16.77;;
60726;SDS011;46577;49.004;12.120;2022-12-18T07:04:27;55.07;;;16.93;;
60726;SDS011;46577;49.004;12.120;2022-12-18T07:06:53;47.17;;;16.57;;
60726;SDS011;46577;49.004;12.120;2022-12-18T07:09:19;50.47;;;15.63;;
60726;SDS011;46577;49.004;12.120;2022-12-18T07:11:45;44.50;;;16.07;;
60726;SDS011;46577;49.004;12.120;2022-12-18T07:14:10;49.17;;;15.67;;
60726;SDS011;46577;49.004;12.120;2022-12-18T07:16:36;58.13;;;16.90;;
60726;SDS011;46577;49.004;12.120;2022-12-18T07:19:01;57.57;;;17.03;;
60726;SDS011;46577;49.004;12.120;2022-12-18T07:21:27;52.47;;;17.60;;
60726;SDS011;46577;49.004;12.120;2022-12-18T07:23:52;51.93;;;18.30;;
60726;SDS011;46577;49.004;12.120;2022-12-18T07:26:19;54.77;;;17.27;;
60726;SDS011;46577;49.004;12.120;2022-12-18T07:28:46;44.93;;;15.60;;
60726;SDS011;46577;49.004;12.120;2022-12-18T07:31:13;52.33;;;15.13;;
60726;SDS011;46577;49.004;12.120;2022-12-18T07:33:41;51.57;;;15.90;;
60726;SDS011;46577;49.004;12.120;2022-12-18T07:36:07;57.20;;;17.63;;
60726;SDS011;46577;49.004;12.120;2022-12-18T07:38:35;60.17;;;15.40;;
60726;SDS011;46577;49.004;12.120;2022-12-18T07:41:03;50.85;;;15.48;;
60726;SDS011;46577;49.004;12.120;2022-12-18T07:43:30;46.42;;;14.45;;
60726;SDS011;46577;49.004;12.120;2022-12-18T07:45:56;44.40;;;14.30;;
60726;SDS011;46577;49.004;12.120;2022-12-18T07:48:21;42.43;;;15.23;;
60726;SDS011;46577;49.004;12.120;2022-12-18T07:50:47;54.00;;;17.30;;
60726;SDS011;46577;49.004;12.120;2022-12-18T07:53:13;27.87;;;10.90;;
60726;SDS011;46577;49.004;12.120;2022-12-18T07:55:39;53.97;;;17.33;;
60726;SDS011;46577;49.004;12.120;2022-12-18T07:58:06;48.60;;;16.48;;
60726;SDS011;46577;49.004;12.120;2022-12-18T08:00:32;58.47;;;18.00;;
60726;SDS011;46577;49.004;12.120;2022-12-18T08:02:58;41.25;;;15.68;;
60726;SDS011;46577;49.004;12.120;2022-12-18T08:05:24;46.20;;;13.20;;
60726;SDS011;46577;49.004;12.120;2022-12-18T08:07:49;47.40;;;16.37;;
60726;SDS011;46577;49.004;12.120;2022-12-18T08:10:15;54.83;;;18.90;;
60726;SDS011;46577;49.004;12.120;2022-12-18T08:12:41;49.90;;;14.87;;
60726;SDS011;46577;49.004;12.120;2022-12-18T08:15:07;44.83;;;14.60;;
60726;SDS011;46577;49.004;12.120;2022-12-18T08:17:33;45.00;;;14.93;;
60726;SDS011;46577;49.004;12.120;2022-12-18T08:19:58;54.03;;;17.50;;
60726;SDS011;46577;49.004;12.120;2022-12-18T08:22:24;36.23;;;12.03;;
60726;SDS011;46577;49.004;12.120;2022-12-18T08:24:50;34.83;;;12.97;;
60726;SDS011;46577;49.004;12.120;2022-12-18T08:27:16;30.23;;;12.47;;
60726;SDS011;46577;49.004;12.120;2022-12-18T08:29:41;37.20;;;13.37;;
60726;SDS011;46577;49.004;12.120;2022-12-18T08:32:07;37.10;;;13.37;;
60726;SDS011;46577;49.004;12.120;2022-12-18T08:34:32;28.20;;;11.30;;
60726;SDS011;46577;49.004;12.120;2022-12-18T08:36:58;38.53;;;12.07;;
60726;SDS011;46577;49.004;12.120;2022-12-18T08:39:24;32.37;;;11.33;;
60726;SDS011;46577;49.004;12.120;2022-12-18T08:41:49;20.57;;;7.40;;
60726;SDS011;46577;49.004;12.120;2022-12-18T08:44:33;27.03;;;11.20;;
60726;SDS011;46577;49.004;12.120;2022-12-18T08:47:05;37.87;;;12.50;;
60726;SDS011;46577;49.004;12.120;2022-12-18T08:49:32;31.70;;;12.47;;
60726;SDS011;46577;49.004;12.120;2022-12-18T08:51:58;34.13;;;13.33;;
60726;SDS011;46577;49.004;12.120;2022-12-18T08:54:24;40.27;;;14.30;;
60726;SDS011;46577;49.004;12.120;2022-12-18T08:56:51;29.65;;;11.77;;
60726;SDS011;46577;49.004;12.120;2022-12-18T08:59:17;36.60;;;13.60;;
60726;SDS011;46577;49.004;12.120;2022-12-18T09:01:44;43.83;;;13.33;;
60726;SDS011;46577;49.004;12.120;2022-12-18T09:04:10;39.63;;;15.10;;
60726;SDS011;46577;49.004;12.120;2022-12-18T09:06:36;43.37;;;13.40;;
60726;SDS011;46577;49.004;12.120;2022-12-18T09:09:02;39.33;;;15.93;;
60726;SDS011;46577;49.004;12.120;2022-12-18T09:11:29;34.77;;;14.07;;
60726;SDS011;46577;49.004;12.120;2022-12-18T09:13:55;38.63;;;12.87;;
60726;SDS011;46577;49.004;12.120;2022-12-18T09:16:21;35.40;;;13.70;;
60726;SDS011;46577;49.004;12.120;2022-12-18T09:18:48;41.10;;;13.93;;
60726;SDS011;46577;49.004;12.120;2022-12-18T09:21:15;38.17;;;13.00;;
60726;SDS011;46577;49.004;12.120;2022-12-18T09:23:49;34.60;;;12.67;;
60726;SDS011;46577;49.004;12.120;2022-12-18T09:26:16;33.07;;;12.10;;
60726;SDS011;46577;49.004;12.120;2022-12-18T09:28:41;46.33;;;13.80;;
60726;SDS011;46577;49.004;12.120;2022-12-18T09:31:08;40.80;;;13.53;;
60726;SDS011;46577;49.004;12.120;2022-12-18T09:33:35;28.37;;;10.50;;
60726;SDS011;46577;49.004;12.120;2022-12-18T09:36:03;43.10;;;13.70;;
60726;SDS011;46577;49.004;12.120;2022-12-18T09:38:29;32.07;;;13.50;;
60726;SDS011;46577;49.004;12.120;2022-12-18T09:40:57;31.90;;;12.77;;
60726;SDS011;46577;49.004;12.120;2022-12-18T09:43:49;37.83;;;12.53;;
60726;SDS011;46577;49.004;12.120;2022-12-18T09:46:28;39.20;;;14.40;;
60726;SDS011;46577;49.004;12.120;2022-12-18T09:48:59;30.70;;;12.43;;
60726;SDS011;46577;49.004;12.120;2022-12-18T09:51:28;39.87;;;14.37;;
60726;SDS011;46577;49.004;12.120;2022-12-18T09:54:05;37.00;;;15.40;;
60726;SDS011;46577;49.004;12.120;2022-12-18T09:56:36;37.10;;;14.00;;
60726;SDS011;46577;49.004;12.120;2022-12-18T09:59:09;50.63;;;16.40;;
60726;SDS011;46577;49.004;12.120;2022-12-18T10:01:49;41.63;;;15.83;;
60726;SDS011;46577;49.004;12.120;2022-12-18T10:04:15;42.83;;;14.37;;
60726;SDS011;46577;49.004;12.120;2022-12-18T10:09:41;58.13;;;17.63;;
60726;SDS011;46577;49.004;12.120;2022-12-18T10:12:32;39.83;;;13.60;;
60726;SDS011;46577;49.004;12.120;2022-12-18T10:17:54;36.77;;;14.60;;
60726;SDS011;46577;49.004;12.120;2022-12-18T10:28:12;37.17;;;13.03;;
60726;SDS011;46577;49.004;12.120;2022-12-18T10:30:39;36.27;;;12.10;;
60726;SDS011;46577;49.004;12.120;2022-12-18T10:33:08;28.97;;;11.80;;
60726;SDS011;46577;49.004;12.120;2022-12-18T10:35:37;21.87;;;8.30;;
60726;SDS011;46577;49.004;12.120;2022-12-18T10:40:48;33.73;;;12.10;;
60726;SDS011;46577;49.004;12.120;2022-12-18T10:43:14;29.50;;;10.57;;
60726;SDS011;46577;49.004;12.120;2022-12-18T10:45:44;40.53;;;13.70;;
60726;SDS011;46577;49.004;12.120;2022-12-18T10:48:22;34.73;;;10.47;;
60726;SDS011;46577;49.004;12.120;2022-12-18T10:50:50;33.13;;;12.40;;
60726;SDS011;46577;49.004;12.120;2022-12-18T10:53:20;30.90;;;13.07;;
60726;SDS011;46577;49.004;12.120;2022-12-18T10:55:52;35.13;;;11.63;;
60726;SDS011;46577;49.004;12.120;2022-12-18T10:58:25;45.33;;;15.40;;
60726;SDS011;46577;49.004;12.120;2022-12-18T11:01:04;42.27;;;13.37;;
60726;SDS011;46577;49.004;12.120;2022-12-18T11:03:32;38.07;;;13.07;;
60726;SDS011;46577;49.004;12.120;2022-12-18T11:06:05;32.47;;;12.40;;
60726;SDS011;46577;49.004;12.120;2022-12-18T11:08:33;35.03;;;12.60;;
60726;SDS011;46577;49.004;12.120;2022-12-18T11:10:59;45.13;;;14.83;;
60726;SDS011;46577;49.004;12.120;2022-12-18T11:13:25;42.03;;;16.53;;
60726;SDS011;46577;49.004;12.120;2022-12-18T11:15:53;39.63;;;13.37;;
60726;SDS011;46577;49.004;12.120;2022-12-18T11:18:25;38.00;;;14.70;;
60726;SDS011;46577;49.004;12.120;2022-12-18T11:20:59;52.83;;;16.60;;
60726;SDS011;46577;49.004;12.120;2022-12-18T11:23:34;47.93;;;16.47;;
60726;SDS011;46577;49.004;12.120;2022-12-18T11:26:01;37.90;;;14.77;;
60726;SDS011;46577;49.004;12.120;2022-12-18T11:31:18;47.57;;;15.37;;
60726;SDS011;46577;49.004;12.120;2022-12-18T11:33:49;38.30;;;13.60;;
60726;SDS011;46577;49.004;12.120;2022-12-18T11:36:21;55.43;;;16.63;;
60726;SDS011;46577;49.004;12.120;2022-12-18T11:38:47;34.40;;;14.63;;
60726;SDS011;46577;49.004;12.120;2022-12-18T11:44:28;39.87;;;13.70;;
60726;SDS011;46577;49.004;12.120;2022-12-18T11:47:02;35.03;;;15.47;;
60726;SDS011;46577;49.004;12.120;2022-12-18T11:49:34;40.30;;;14.63;;
60726;SDS011;46577;49.004;12.120;2022-12-18T11:54:44;35.67;;;14.30;;
60726;SDS011;46577;49.004;12.120;2022-12-18T11:57:14;37.37;;;16.50;;
60726;SDS011;46577;49.004;12.120;2022-12-18T12:00:14;41.33;;;14.70;;
60726;SDS011;46577;49.004;12.120;2022-12-18T12:02:58;42.27;;;14.00;;
60726;SDS011;46577;49.004;12.120;2022-12-18T12:08:40;41.27;;;16.07;;
60726;SDS011;46577;49.004;12.120;2022-12-18T12:11:23;31.60;;;14.33;;
60726;SDS011;46577;49.004;12.120;2022-12-18T12:22:02;33.93;;;12.97;;
60726;SDS011;46577;49.004;12.120;2022-12-18T12:28:01;47.67;;;13.23;;
60726;SDS011;46577;49.004;12.120;2022-12-18T12:30:35;33.10;;;14.30;;
60726;SDS011;46577;49.004;12.120;2022-12-18T12:36:00;30.07;;;13.73;;
60726;SDS011;46577;49.004;12.120;2022-12-18T12:38:57;31.80;;;13.97;;
60726;SDS011;46577;49.004;12.120;2022-12-18T12:41:27;38.17;;;13.90;;
60726;SDS011;46577;49.004;12.120;2022-12-18T12:45:01;27.97;;;13.63;;
60726;SDS011;46577;49.004;12.120;2022-12-18T12:47:18;30.60;;;10.77;;
60726;SDS011;46577;49.004;12.120;2022-12-18T12:50:06;27.07;;;11.53;;
60726;SDS011;46577;49.004;12.120;2022-12-18T12:52:44;36.50;;;12.10;;
60726;SDS011;46577;49.004;12.120;2022-12-18T12:55:14;27.40;;;11.37;;
60726;SDS011;46577;49.004;12.120;2022-12-18T12:57:46;36.50;;;13.50;;
60726;SDS011;46577;49.004;12.120;2022-12-18T13:00:19;25.57;;;11.90;;
60726;SDS011;46577;49.004;12.120;2022-12-18T13:05:45;25.17;;;11.40;;
60726;SDS011;46577;49.004;12.120;2022-12-18T13:11:28;25.80;;;11.10;;
60726;SDS011;46577;49.004;12.120;2022-12-18T13:14:20;30.80;;;12.00;;
60726;SDS011;46577;49.004;12.120;2022-12-18T13:17:13;32.77;;;14.27;;
60726;SDS011;46577;49.004;12.120;2022-12-18T13:19:44;21.90;;;9.33;;
60726;SDS011;46577;49.004;12.120;2022-12-18T13:22:20;30.13;;;11.80;;
60726;SDS011;46577;49.004;12.120;2022-12-18T13:24:48;34.70;;;11.30;;
60726;SDS011;46577;49.004;12.120;2022-12-18T13:27:41;34.03;;;12.20;;
60726;SDS011;46577;49.004;12.120;2022-12-18T13:40:57;29.30;;;12.90;;
60726;SDS011;46577;49.004;12.120;2022-12-18T13:49:03;51.03;;;16.27;;
60726;SDS011;46577;49.004;12.120;2022-12-18T13:51:42;35.13;;;13.90;;
60726;SDS011;46577;49.004;12.120;2022-12-18T13:54:19;52.47;;;17.00;;
60726;SDS011;46577;49.004;12.120;2022-12-18T13:57:00;41.47;;;16.73;;
60726;SDS011;46577;49.004;12.120;2022-12-18T13:59:34;35.97;;;14.27;;
60726;SDS011;46577;49.004;12.120;2022-12-18T14:02:07;38.37;;;13.93;;
60726;SDS011;46577;49.004;12.120;2022-12-18T14:04:44;42.60;;;14.57;;
60726;SDS011;46577;49.004;12.120;2022-12-18T14:07:18;36.33;;;15.03;;
60726;SDS011;46577;49.004;12.120;2022-12-18T14:09:49;34.87;;;14.47;;
60726;SDS011;46577;49.004;12.120;2022-12-18T14:17:52;43.07;;;16.10;;
60726;SDS011;46577;49.004;12.120;2022-12-18T14:20:20;44.03;;;13.63;;
60726;SDS011;46577;49.004;12.120;2022-12-18T14:22:47;39.37;;;14.63;;
60726;SDS011;46577;49.004;12.120;2022-12-18T14:27:42;40.27;;;14.60;;
60726;SDS011;46577;49.004;12.120;2022-12-18T14:30:42;35.10;;;13.27;;
60726;SDS011;46577;49.004;12.120;2022-12-18T14:33:13;33.53;;;12.83;;
60726;SDS011;46577;49.004;12.120;2022-12-18T14:35:41;41.50;;;15.67;;
60726;SDS011;46577;49.004;12.120;2022-12-18T14:38:33;37.07;;;14.13;;
60726;SDS011;46577;49.004;12.120;2022-12-18T14:41:01;41.63;;;15.77;;
60726;SDS011;46577;49.004;12.120;2022-12-18T14:43:38;42.73;;;15.50;;
60726;SDS011;46577;49.004;12.120;2022-12-18T14:46:06;47.53;;;13.63;;
60726;SDS011;46577;49.004;12.120;2022-12-18T14:48:57;38.60;;;13.30;;
60726;SDS011;46577;49.004;12.120;2022-12-18T14:51:25;41.90;;;15.57;;
60726;SDS011;46577;49.004;12.120;2022-12-18T14:53:55;41.43;;;15.00;;
60726;SDS011;46577;49.004;12.120;2022-12-18T14:56:27;43.10;;;15.03;;
60726;SDS011;46577;49.004;12.120;2022-12-18T14:58:59;29.33;;;12.30;;
60726;SDS011;46577;49.004;12.120;2022-12-18T15:01:30;27.60;;;13.13;;
60726;SDS011;46577;49.004;12.120;2022-12-18T15:03:59;31.40;;;12.53;;
60726;SDS011;46577;49.004;12.120;2022-12-18T15:06:28;34.97;;;14.47;;
60726;SDS011;46577;49.004;12.120;2022-12-18T15:08:59;36.55;;;13.60;;
60726;SDS011;46577;49.004;12.120;2022-12-18T15:11:29;37.67;;;15.15;;
60726;SDS011;46577;49.004;12.120;2022-12-18T15:13:59;42.60;;;15.20;;
60726;SDS011;46577;49.004;12.120;2022-12-18T15:16:49;35.50;;;14.43;;
60726;SDS011;46577;49.004;12.120;2022-12-18T15:19:19;37.27;;;13.97;;
60726;SDS011;46577;49.004;12.120;2022-12-18T15:21:47;38.30;;;15.07;;
60726;SDS011;46577;49.004;12.120;2022-12-18T15:24:16;45.33;;;13.57;;
60726;SDS011;46577;49.004;12.120;2022-12-18T15:26:45;41.50;;;14.98;;
60726;SDS011;46577;49.004;12.120;2022-12-18T15:29:20;47.93;;;16.20;;
60726;SDS011;46577;49.004;12.120;2022-12-18T15:32:03;55.42;;;16.83;;
60726;SDS011;46577;49.004;12.120;2022-12-18T15:34:30;41.88;;;14.25;;
60726;SDS011;46577;49.004;12.120;2022-12-18T15:36:58;37.60;;;14.23;;
60726;SDS011;46577;49.004;12.120;2022-12-18T15:39:24;35.55;;;13.43;;
60726;SDS011;46577;49.004;12.120;2022-12-18T15:41:50;48.57;;;15.33;;
60726;SDS011;46577;49.004;12.120;2022-12-18T15:44:34;42.38;;;15.02;;
60726;SDS011;46577;49.004;12.120;2022-12-18T15:47:01;35.55;;;14.18;;
60726;SDS011;46577;49.004;12.120;2022-12-18T15:49:27;44.80;;;15.70;;
60726;SDS011;46577;49.004;12.120;2022-12-18T15:51:54;34.40;;;14.03;;
60726;SDS011;46577;49.004;12.120;2022-12-18T15:54:22;41.57;;;14.97;;
60726;SDS011;46577;49.004;12.120;2022-12-18T15:57:09;39.87;;;15.20;;
60726;SDS011;46577;49.004;12.120;2022-12-18T15:59:54;38.38;;;14.10;;